Time;durP1;ratioP1;P1;durP2;ratioP2;P2;SDS_P1;SDS_P2;PMS_P1;PMS_P2;Temp;Humidity;BMP_temperature;BMP_pressure;BME280_temperature;BME280_humidity;BME280_pressure;Samples;Min_cycle;Max_cycle;Signal;HPM_P1;HPM_P2
2021/12/31 00:00:15;;;;;;;8.20;6.50;;;;;;;8.11;100.00;98930.73;101493;1307;60787;-74
2021/12/31 00:03:02;;;;;;;7.10;6.30;;;;;;;8.12;100.00;98933.15;101402;1310;74922;-73
2021/12/31 00:05:28;;;;;;;8.20;7.20;;;;;;;8.12;100.00;98930.15;101192;1310;70125;-73
2021/12/31 00:07:55;;;;;;;8.00;7.10;;;;;;;8.12;100.00;98929.05;101386;1307;60471;-73
2021/12/31 00:10:21;;;;;;;7.50;6.70;;;;;;;8.12;100.00;98934.33;101410;1303;60454;-73
2021/12/31 00:12:48;;;;;;;9.70;7.30;;;;;;;8.13;100.00;98936.95;101499;1307;60785;-72
2021/12/31 00:15:15;;;;;;;7.50;6.30;;;;;;;8.13;100.00;98937.83;101405;1307;74313;-72
2021/12/31 00:17:41;;;;;;;6.50;5.80;;;;;;;8.13;100.00;98940.12;101381;1307;60440;-72
2021/12/31 00:20:16;;;;;;;6.90;6.20;;;;;;;8.16;100.00;98945.84;101383;1307;74489;-73
2021/12/31 00:25:25;;;;;;;7.20;6.50;;;;;;;8.17;100.00;98945.64;101379;1307;60485;-73
2021/12/31 00:27:52;;;;;;;7.70;6.60;;;;;;;8.16;100.00;98945.67;101433;1307;73926;-73
2021/12/31 00:30:19;;;;;;;7.40;6.40;;;;;;;8.14;100.00;98949.29;101476;1307;69475;-73
2021/12/31 00:32:48;;;;;;;9.40;8.50;;;;;;;8.15;100.00;98950.48;101512;1306;73209;-74
2021/12/31 00:35:15;;;;;;;8.90;7.90;;;;;;;8.15;100.00;98946.79;101644;1314;60532;-73
2021/12/31 00:37:41;;;;;;;8.60;7.50;;;;;;;8.14;100.00;98949.67;101449;1307;61096;-73
2021/12/31 00:40:13;;;;;;;7.90;7.10;;;;;;;8.13;100.00;98950.04;101401;1307;73788;-73
2021/12/31 00:42:41;;;;;;;8.90;8.00;;;;;;;8.14;100.00;98953.55;101480;1307;70204;-73
2021/12/31 00:45:11;;;;;;;8.00;7.10;;;;;;;8.15;100.00;98959.14;101411;1307;74241;-73
2021/12/31 00:47:39;;;;;;;8.60;7.70;;;;;;;8.17;100.00;98962.96;101439;1307;60539;-73
2021/12/31 00:50:06;;;;;;;8.60;7.70;;;;;;;8.18;100.00;98964.81;101488;1310;62059;-72
2021/12/31 00:52:33;;;;;;;7.50;6.60;;;;;;;8.20;100.00;98967.17;101412;1307;75787;-73
2021/12/31 00:55:01;;;;;;;7.90;7.20;;;;;;;8.22;100.00;98966.17;101478;1310;70425;-72
2021/12/31 00:57:29;;;;;;;12.00;10.10;;;;;;;8.24;100.00;98969.46;101575;1310;73239;-73
2021/12/31 00:59:56;;;;;;;9.00;8.10;;;;;;;8.25;100.00;98965.68;101059;1307;61119;-73
2021/12/31 01:02:25;;;;;;;7.90;7.10;;;;;;;8.26;100.00;98971.25;101410;1307;62086;-73
2021/12/31 01:04:52;;;;;;;8.50;7.40;;;;;;;8.27;100.00;98972.25;101527;1307;75341;-73
2021/12/31 01:07:19;;;;;;;8.50;7.60;;;;;;;8.29;100.00;98973.59;101379;1307;101769;-72
2021/12/31 01:09:46;;;;;;;7.90;7.10;;;;;;;8.30;100.00;98975.11;101397;1307;73153;-72
2021/12/31 01:12:14;;;;;;;8.20;7.40;;;;;;;8.31;100.00;98975.21;101438;1307;61304;-73
2021/12/31 01:15:02;;;;;;;7.80;7.00;;;;;;;8.30;100.00;98972.41;101378;1307;60309;-72
2021/12/31 01:20:17;;;;;;;9.00;7.50;;;;;;;8.32;100.00;98976.92;101392;1306;69368;-73
2021/12/31 01:22:43;;;;;;;8.60;7.70;;;;;;;8.32;100.00;98975.86;101468;1307;73116;-73
2021/12/31 01:25:11;;;;;;;8.70;7.80;;;;;;;8.31;100.00;98977.52;101413;1308;60477;-73
2021/12/31 01:27:39;;;;;;;9.50;8.60;;;;;;;8.32;100.00;98978.67;101417;1307;61931;-74
2021/12/31 01:30:08;;;;;;;8.90;7.50;;;;;;;8.33;100.00;98978.09;101444;1307;74366;-73
2021/12/31 01:32:35;;;;;;;9.60;8.00;;;;;;;8.32;100.00;98977.10;101521;1307;69342;-72
2021/12/31 01:35:04;;;;;;;8.80;7.70;;;;;;;8.32;100.00;98975.31;101390;1310;74502;-72
2021/12/31 01:37:30;;;;;;;10.10;8.50;;;;;;;8.32;100.00;98977.61;101204;1310;60491;-72
2021/12/31 01:39:57;;;;;;;8.60;7.80;;;;;;;8.32;100.00;98983.31;101415;1306;60579;-72
2021/12/31 01:42:34;;;;;;;9.70;8.60;;;;;;;8.31;100.00;98983.52;101411;1306;74254;-72
2021/12/31 01:45:09;;;;;;;8.70;7.80;;;;;;;8.30;100.00;98987.65;101467;1307;69042;-73
2021/12/31 01:47:55;;;;;;;9.50;8.50;;;;;;;8.30;100.00;98987.33;101758;1307;74244;-72
2021/12/31 01:50:24;;;;;;;9.20;8.30;;;;;;;8.29;100.00;98990.93;101589;1307;61310;-74
2021/12/31 01:52:52;;;;;;;11.70;10.60;;;;;;;8.29;100.00;98994.12;101746;1307;62318;-72
2021/12/31 01:55:21;;;;;;;9.50;8.60;;;;;;;8.30;100.00;98997.08;101758;1310;74389;-72
2021/12/31 01:57:49;;;;;;;11.10;9.90;;;;;;;8.30;100.00;99005.02;101862;1307;68774;-72
2021/12/31 02:00:16;;;;;;;9.30;8.40;;;;;;;8.29;100.00;99002.77;101761;1306;74487;-73
2021/12/31 02:02:44;;;;;;;9.20;8.30;;;;;;;8.30;100.00;99003.75;101053;1307;60595;-88
2021/12/31 02:05:12;;;;;;;10.90;9.20;;;;;;;8.31;100.00;98999.28;101599;1302;60504;-85
2021/12/31 02:07:39;;;;;;;10.10;9.10;;;;;;;8.33;100.00;98998.84;101924;1307;73572;-78
2021/12/31 02:10:07;;;;;;;10.50;9.50;;;;;;;8.34;100.00;98998.77;101809;1307;69281;-81
2021/12/31 02:12:38;;;;;;;9.70;8.80;;;;;;;8.34;100.00;98998.02;101765;1306;73403;-80
2021/12/31 02:15:05;;;;;;;9.30;8.30;;;;;;;8.35;100.00;98995.89;101644;1307;61254;-76
2021/12/31 02:17:31;;;;;;;10.60;9.60;;;;;;;8.36;100.00;98992.10;101040;1310;61306;-76
2021/12/31 02:20:00;;;;;;;11.80;10.70;;;;;;;8.36;100.00;98994.20;101600;1310;60529;-79
2021/12/31 02:22:28;;;;;;;10.40;9.30;;;;;;;8.37;100.00;98994.36;101688;1302;67929;-78
2021/12/31 02:25:00;;;;;;;9.00;8.20;;;;;;;8.37;100.00;98995.05;102190;1306;73331;-78
2021/12/31 02:27:27;;;;;;;9.90;8.90;;;;;;;8.40;100.00;98994.41;102794;1310;61208;-79
2021/12/31 02:29:54;;;;;;;8.50;7.70;;;;;;;8.40;100.00;98988.53;102977;1307;60292;-79
2021/12/31 02:32:20;;;;;;;9.20;8.30;;;;;;;8.43;100.00;98990.36;102495;1306;75581;-79
2021/12/31 02:34:47;;;;;;;8.80;8.10;;;;;;;8.43;100.00;98987.01;101616;1305;70316;-76
2021/12/31 02:37:14;;;;;;;9.80;8.80;;;;;;;8.42;100.00;98990.20;101643;1303;73350;-77
2021/12/31 02:39:43;;;;;;;10.10;8.40;;;;;;;8.44;100.00;98985.14;101589;1307;60535;-76
2021/12/31 02:42:11;;;;;;;9.00;8.20;;;;;;;8.45;100.00;98989.52;101527;1304;61820;-78
2021/12/31 02:44:38;;;;;;;9.60;8.60;;;;;;;8.46;100.00;98988.38;101194;1307;74838;-77
2021/12/31 02:47:06;;;;;;;10.00;9.10;;;;;;;8.46;100.00;98983.94;101644;1308;69887;-79
2021/12/31 02:49:40;;;;;;;9.10;8.30;;;;;;;8.46;100.00;98982.86;102058;1307;73258;-80
2021/12/31 02:52:10;;;;;;;9.50;8.60;;;;;;;8.48;100.00;98980.14;101368;1307;60581;-79
2021/12/31 02:54:41;;;;;;;9.80;8.90;;;;;;;8.48;100.00;98981.54;101427;1313;60475;-73
2021/12/31 02:57:08;;;;;;;10.60;9.50;;;;;;;8.50;100.00;98982.65;101108;1310;75486;-72
2021/12/31 02:59:35;;;;;;;8.70;7.90;;;;;;;8.50;100.00;98987.04;101321;1313;67873;-72
2021/12/31 03:02:06;;;;;;;9.60;8.60;;;;;;;8.50;100.00;98986.15;101633;1307;73294;-72
2021/12/31 03:04:39;;;;;;;9.50;8.60;;;;;;;8.49;100.00;98980.42;101131;1309;60500;-72
2021/12/31 03:07:09;;;;;;;10.90;9.80;;;;;;;8.52;100.00;98982.19;101697;1307;60771;-71
2021/12/31 03:09:38;;;;;;;8.70;7.90;;;;;;;8.53;100.00;98983.37;101399;1306;74502;-72
2021/12/31 03:12:08;;;;;;;9.30;8.40;;;;;;;8.54;100.00;98987.16;101707;1307;69107;-72
2021/12/31 03:14:37;;;;;;;;;;;;;;;8.54;100.00;98984.68;102182;1307;73964;-72
2021/12/31 03:17:05;;;;;;;8.70;7.90;;;;;;;8.57;100.00;98989.16;101736;1306;60499;-72
2021/12/31 03:19:32;;;;;;;9.50;8.50;;;;;;;8.58;100.00;98993.52;102099;1312;60860;-72
2021/12/31 03:21:58;;;;;;;8.50;7.70;;;;;;;8.59;100.00;98989.55;102450;1307;73405;-71
2021/12/31 03:24:25;;;;;;;9.70;8.80;;;;;;;8.60;100.00;98995.87;102434;1307;60491;-72
2021/12/31 03:26:52;;;;;;;9.70;8.80;;;;;;;8.62;100.00;99000.04;102672;1306;73333;-72
2021/12/31 03:29:18;;;;;;;9.60;8.80;;;;;;;8.64;100.00;99002.22;101499;1310;60528;-72
2021/12/31 03:31:45;;;;;;;9.00;8.20;;;;;;;8.65;100.00;99004.23;101451;1306;62171;-72
2021/12/31 03:34:13;;;;;;;8.80;8.00;;;;;;;8.67;100.00;99010.39;101173;1305;75370;-72
2021/12/31 03:36:41;;;;;;;7.90;7.20;;;;;;;8.67;100.00;99008.60;101521;1307;69193;-71
2021/12/31 03:39:09;;;;;;;8.50;7.80;;;;;;;8.67;100.00;99006.27;101490;1306;74671;-73
2021/12/31 03:41:36;;;;;;;10.40;9.50;;;;;;;8.68;100.00;99008.88;101586;1306;60510;-71
2021/12/31 03:44:05;;;;;;;8.70;8.00;;;;;;;8.69;100.00;99007.92;101492;1309;61033;-71
2021/12/31 03:46:31;;;;;;;7.70;7.00;;;;;;;8.70;100.00;99006.98;101424;1307;75336;-70
2021/12/31 03:48:58;;;;;;;8.40;7.60;;;;;;;8.70;100.00;99006.97;101318;1310;68796;-71
2021/12/31 03:51:24;;;;;;;8.80;8.00;;;;;;;8.70;100.00;99005.04;101395;1310;74248;-71
2021/12/31 03:53:51;;;;;;;7.80;7.00;;;;;;;8.71;100.00;99009.72;101414;1310;61172;-71
2021/12/31 03:56:21;;;;;;;8.70;7.90;;;;;;;8.73;100.00;99014.05;101435;1307;61752;-71
2021/12/31 03:58:47;;;;;;;7.70;7.00;;;;;;;8.73;100.00;99014.90;101430;1307;75403;-71
2021/12/31 04:01:14;;;;;;;8.30;7.60;;;;;;;8.74;100.00;99017.71;101407;1310;70510;-72
2021/12/31 04:03:41;;;;;;;7.60;6.80;;;;;;;8.74;100.00;99015.24;101483;1306;60557;-73
2021/12/31 04:06:07;;;;;;;7.70;7.00;;;;;;;8.73;100.00;99013.50;101424;1306;60545;-72
2021/12/31 04:08:34;;;;;;;8.10;7.40;;;;;;;8.73;100.00;99015.14;101405;1307;60414;-72
2021/12/31 04:11:00;;;;;;;12.20;11.10;;;;;;;8.73;100.00;99018.86;101451;1307;60500;-72
2021/12/31 04:13:27;;;;;;;9.40;8.60;;;;;;;8.73;100.00;99019.92;101415;1307;69451;-71
2021/12/31 04:15:54;;;;;;;8.70;7.90;;;;;;;8.73;100.00;99021.02;101398;1307;73115;-71
2021/12/31 04:18:20;;;;;;;8.00;7.30;;;;;;;8.73;100.00;99022.41;101408;1306;60451;-71
2021/12/31 04:20:48;;;;;;;8.40;7.50;;;;;;;8.74;100.00;99022.68;101401;1307;60350;-71
2021/12/31 04:23:28;;;;;;;8.10;7.40;;;;;;;8.74;100.00;99022.33;101550;1306;75344;-72
2021/12/31 04:25:56;;;;;;;8.50;7.70;;;;;;;8.73;100.00;99023.28;100997;1312;69079;-70
2021/12/31 04:28:24;;;;;;;8.00;7.30;;;;;;;8.72;100.00;99023.00;101565;1306;73555;-71
2021/12/31 04:30:51;;;;;;;7.70;7.00;;;;;;;8.72;100.00;99023.85;101424;1307;60462;-71
2021/12/31 04:33:17;;;;;;;8.50;7.70;;;;;;;8.73;100.00;99022.02;101425;1307;61911;-71
2021/12/31 04:35:44;;;;;;;8.80;8.00;;;;;;;8.73;100.00;99026.98;101405;1306;75535;-71
2021/12/31 04:38:11;;;;;;;9.90;9.00;;;;;;;8.73;100.00;99025.17;101464;1304;70144;-72
2021/12/31 04:40:38;;;;;;;10.40;9.40;;;;;;;8.71;100.00;99021.94;101526;1307;74264;-71
2021/12/31 04:43:05;;;;;;;10.40;9.40;;;;;;;8.73;100.00;99019.73;101239;1307;60474;-71
2021/12/31 04:45:31;;;;;;;10.30;9.30;;;;;;;8.73;100.00;99021.13;101053;1307;61122;-70
2021/12/31 04:47:58;;;;;;;9.70;8.70;;;;;;;8.73;100.00;99022.58;101366;1306;73734;-71
2021/12/31 04:50:25;;;;;;;9.70;8.60;;;;;;;8.72;100.00;99024.22;101395;1307;70204;-73
2021/12/31 04:52:51;;;;;;;9.00;8.20;;;;;;;8.73;100.00;99024.01;101400;1307;74313;-71
2021/12/31 04:55:18;;;;;;;8.80;8.00;;;;;;;8.72;100.00;99022.27;101395;1314;60449;-71
2021/12/31 04:57:48;;;;;;;9.10;8.30;;;;;;;8.73;100.00;99019.70;101584;1306;60337;-70
2021/12/31 05:00:16;;;;;;;9.60;8.70;;;;;;;8.73;100.00;99019.56;101411;1307;75925;-70
2021/12/31 05:02:42;;;;;;;9.80;8.90;;;;;;;8.72;100.00;99020.64;101501;1306;69291;-72
2021/12/31 05:05:09;;;;;;;8.70;8.00;;;;;;;8.72;100.00;99025.63;101379;1307;73159;-71
2021/12/31 05:07:35;;;;;;;13.70;12.50;;;;;;;8.73;100.00;99028.62;101434;1307;61002;-71
2021/12/31 05:10:03;;;;;;;12.70;11.50;;;;;;;8.73;100.00;99028.06;101406;1306;62169;-71
2021/12/31 05:12:32;;;;;;;8.70;7.90;;;;;;;8.72;100.00;99031.47;101042;1310;74386;-73
2021/12/31 05:15:01;;;;;;;8.90;8.10;;;;;;;8.73;100.00;99026.28;101404;1305;69231;-71
2021/12/31 05:17:28;;;;;;;9.50;8.60;;;;;;;8.76;100.00;99028.25;101422;1306;73844;-71
2021/12/31 05:19:54;;;;;;;9.20;8.40;;;;;;;8.77;100.00;99029.25;101443;1307;61521;-72
2021/12/31 05:22:21;;;;;;;11.10;9.70;;;;;;;8.77;100.00;99027.85;101526;1307;60551;-69
2021/12/31 05:24:47;;;;;;;9.50;8.70;;;;;;;8.77;100.00;99029.96;101583;1310;60571;-79
2021/12/31 05:27:14;;;;;;;9.10;8.30;;;;;;;8.77;100.00;99026.23;101521;1307;60350;-72
2021/12/31 05:29:40;;;;;;;9.70;8.90;;;;;;;8.78;100.00;99026.67;101269;1310;60551;-73
2021/12/31 05:32:07;;;;;;;9.50;8.50;;;;;;;8.78;100.00;99028.31;101441;1307;60520;-72
2021/12/31 05:34:34;;;;;;;10.00;9.10;;;;;;;8.76;100.00;99027.15;101416;1306;60563;-73
2021/12/31 05:37:00;;;;;;;12.90;11.70;;;;;;;8.75;100.00;99022.77;101378;1306;75527;-73
2021/12/31 05:39:27;;;;;;;12.00;10.80;;;;;;;8.75;100.00;99019.61;101372;1307;60459;-70
2021/12/31 05:41:54;;;;;;;12.20;11.00;;;;;;;8.74;100.00;99022.15;101428;1307;73886;-71
2021/12/31 05:44:22;;;;;;;10.60;9.60;;;;;;;8.73;100.00;99035.10;101441;1307;60448;-71
2021/12/31 05:46:50;;;;;;;9.40;8.50;;;;;;;8.75;100.00;99029.92;101407;1307;61982;-71
2021/12/31 05:49:17;;;;;;;9.80;8.90;;;;;;;8.74;100.00;99030.98;101392;1306;71642;-72
2021/12/31 05:51:44;;;;;;;9.90;8.40;;;;;;;8.72;100.00;99034.63;101426;1307;69430;-72
2021/12/31 05:54:11;;;;;;;9.00;8.10;;;;;;;8.73;100.00;99035.33;101414;1307;74256;-72
2021/12/31 05:56:37;;;;;;;9.00;8.10;;;;;;;8.73;100.00;99034.25;101462;1307;61137;-72
2021/12/31 05:59:04;;;;;;;9.70;8.70;;;;;;;8.72;100.00;99035.86;101489;1307;61905;-72
2021/12/31 06:01:30;;;;;;;9.90;8.80;;;;;;;8.72;100.00;99037.33;101378;1310;74421;-72
2021/12/31 06:03:57;;;;;;;12.50;9.10;;;;;;;8.73;100.00;99038.88;101425;1307;69205;-73
2021/12/31 06:06:23;;;;;;;12.30;10.80;;;;;;;8.72;100.00;99041.91;101428;1307;60583;-72
2021/12/31 06:08:50;;;;;;;10.90;9.80;;;;;;;8.71;100.00;99043.73;101438;1303;60465;-71
2021/12/31 06:11:17;;;;;;;10.50;9.40;;;;;;;8.70;100.00;99041.68;101480;1307;61853;-72
2021/12/31 06:13:45;;;;;;;9.40;8.10;;;;;;;8.69;100.00;99039.10;101472;1307;74598;-72
2021/12/31 06:16:12;;;;;;;9.00;8.10;;;;;;;8.69;100.00;99044.77;101103;1312;69242;-72
2021/12/31 06:18:39;;;;;;;9.70;8.30;;;;;;;8.67;100.00;99049.45;101258;1310;73117;-72
2021/12/31 06:21:07;;;;;;;10.20;8.30;;;;;;;8.67;100.00;99049.34;101405;1306;60404;-72
2021/12/31 06:23:34;;;;;;;11.20;8.90;;;;;;;8.66;100.00;99054.14;101466;1306;60810;-73
2021/12/31 06:26:00;;;;;;;11.70;8.80;;;;;;;8.67;100.00;99053.02;101165;1309;74378;-73
2021/12/31 06:28:27;;;;;;;10.10;8.80;;;;;;;8.68;100.00;99051.73;101480;1307;60451;-72
2021/12/31 06:30:53;;;;;;;12.10;9.60;;;;;;;8.69;100.00;99059.29;101429;1307;73336;-72
2021/12/31 06:33:20;;;;;;;10.30;9.20;;;;;;;8.68;100.00;99057.41;101385;1310;60718;-72
2021/12/31 06:35:46;;;;;;;10.10;9.10;;;;;;;8.68;100.00;99063.42;101250;1314;60745;-71
2021/12/31 06:38:13;;;;;;;10.10;9.00;;;;;;;8.68;100.00;99061.61;101473;1306;60471;-72
2021/12/31 06:40:40;;;;;;;11.60;10.40;;;;;;;8.68;100.00;99059.32;101490;1307;67339;-72
2021/12/31 06:43:06;;;;;;;8.60;7.80;;;;;;;8.70;100.00;99062.73;100991;1307;73272;-72
2021/12/31 06:45:33;;;;;;;9.70;7.30;;;;;;;8.73;100.00;99065.27;101394;1307;61236;-72
2021/12/31 06:47:59;;;;;;;9.30;8.40;;;;;;;8.74;100.00;99070.50;101360;1307;60525;-72
2021/12/31 06:50:26;;;;;;;8.50;7.60;;;;;;;8.75;100.00;99067.63;101473;1307;75430;-73
2021/12/31 06:52:52;;;;;;;7.90;7.20;;;;;;;8.75;100.00;99070.09;101048;1309;69239;-71
2021/12/31 06:55:19;;;;;;;9.10;7.30;;;;;;;8.77;100.00;99070.33;101524;1306;74577;-72
2021/12/31 06:57:47;;;;;;;8.00;7.20;;;;;;;8.79;100.00;99068.08;101418;1307;60797;-72
2021/12/31 07:00:13;;;;;;;6.70;6.10;;;;;;;8.82;100.00;99067.77;101591;1307;60941;-71
2021/12/31 07:02:40;;;;;;;8.40;7.60;;;;;;;8.83;100.00;99067.67;101441;1307;75631;-72
2021/12/31 07:05:07;;;;;;;8.30;7.50;;;;;;;8.85;100.00;99063.34;101232;1310;60430;-72
2021/12/31 07:07:34;;;;;;;10.90;8.60;;;;;;;8.87;100.00;99064.23;101375;1307;73365;-73
2021/12/31 07:10:00;;;;;;;8.30;7.50;;;;;;;8.91;100.00;99063.50;100976;1312;60451;-72
2021/12/31 07:12:27;;;;;;;8.40;7.60;;;;;;;8.95;100.00;99069.66;101393;1307;61888;-73
2021/12/31 07:14:53;;;;;;;9.70;8.70;;;;;;;8.96;100.00;99069.77;101398;1306;73066;-72
2021/12/31 07:17:20;;;;;;;9.30;8.40;;;;;;;8.98;100.00;99073.34;101400;1307;70409;-72
2021/12/31 07:19:46;;;;;;;9.00;7.80;;;;;;;9.00;100.00;99075.00;101261;1310;60436;-72
2021/12/31 07:22:13;;;;;;;10.10;8.80;;;;;;;9.03;100.00;99076.62;101486;1306;61300;-72
2021/12/31 07:24:40;;;;;;;9.20;8.10;;;;;;;9.06;100.00;99076.99;101558;1307;60548;-72
2021/12/31 07:27:06;;;;;;;8.20;7.50;;;;;;;9.06;100.00;99075.69;101424;1307;60466;-73
2021/12/31 07:29:33;;;;;;;7.50;6.80;;;;;;;9.09;100.00;99076.08;101590;1310;60508;-73
2021/12/31 07:31:59;;;;;;;9.10;8.20;;;;;;;9.10;100.00;99071.55;101163;1312;71535;-73
2021/12/31 07:34:26;;;;;;;8.00;7.30;;;;;;;9.13;100.00;99074.98;101816;1306;60451;-72
2021/12/31 07:36:53;;;;;;;9.10;8.20;;;;;;;9.14;100.00;99077.52;101536;1307;60471;-73
2021/12/31 07:39:23;;;;;;;8.50;7.60;;;;;;;9.18;100.00;99082.42;101289;1310;74546;-72
2021/12/31 07:41:51;;;;;;;8.40;7.60;;;;;;;9.21;100.00;99081.88;101488;1307;69181;-73
2021/12/31 07:44:17;;;;;;;8.60;7.60;;;;;;;9.26;100.00;99089.06;101522;1307;73567;-73
2021/12/31 07:46:45;;;;;;;8.10;7.00;;;;;;;9.29;100.00;99088.71;101467;1306;60556;-73
2021/12/31 07:49:12;;;;;;;8.80;7.20;;;;;;;9.32;100.00;99089.55;101395;1310;60977;-73
2021/12/31 07:51:39;;;;;;;8.40;6.10;;;;;;;9.35;100.00;99089.23;101463;1307;74708;-73
2021/12/31 07:54:06;;;;;;;8.00;5.90;;;;;;;9.36;100.00;99095.35;101520;1307;69094;-78
2021/12/31 07:56:32;;;;;;;7.90;7.10;;;;;;;9.37;100.00;99094.77;101469;1310;73197;-73
2021/12/31 07:58:59;;;;;;;6.90;6.00;;;;;;;9.37;100.00;99093.00;101472;1310;60452;-73
2021/12/31 08:01:25;;;;;;;8.40;6.50;;;;;;;9.37;100.00;99094.25;101476;1306;60442;-74
2021/12/31 08:03:52;;;;;;;6.20;5.30;;;;;;;9.38;100.00;99096.31;101427;1310;60529;-73
2021/12/31 08:06:18;;;;;;;6.90;6.10;;;;;;;9.40;100.00;99096.74;101451;1307;70290;-73
2021/12/31 08:08:45;;;;;;;6.90;6.20;;;;;;;9.40;100.00;99097.97;101442;1307;74136;-74
2021/12/31 08:11:12;;;;;;;8.10;7.30;;;;;;;9.42;100.00;99100.69;101517;1307;60458;-74
2021/12/31 08:13:38;;;;;;;6.70;6.00;;;;;;;9.44;100.00;99096.13;101115;1310;60570;-74
2021/12/31 08:16:05;;;;;;;6.70;6.10;;;;;;;9.44;100.00;99097.21;101411;1306;60451;-75
2021/12/31 08:18:31;;;;;;;6.20;5.60;;;;;;;9.44;100.00;99101.95;101427;1307;69554;-73
2021/12/31 08:20:58;;;;;;;6.90;6.00;;;;;;;9.45;100.00;99104.41;101423;1310;74662;-74
2021/12/31 08:23:24;;;;;;;7.30;6.50;;;;;;;9.45;100.00;99106.72;101073;1312;60587;-72
2021/12/31 08:25:51;;;;;;;6.50;5.90;;;;;;;9.44;100.00;99110.65;101476;1307;61195;-73
2021/12/31 08:28:18;;;;;;;8.00;6.30;;;;;;;9.43;100.00;99109.11;101679;1307;75133;-73
2021/12/31 08:30:45;;;;;;;9.80;7.30;;;;;;;9.44;100.00;99106.23;101476;1307;69343;-73
2021/12/31 08:33:11;;;;;;;9.50;7.50;;;;;;;9.44;100.00;99107.44;101558;1314;74494;-74
2021/12/31 08:35:38;;;;;;;8.20;7.40;;;;;;;9.46;100.00;99111.08;101519;1306;61014;-74
2021/12/31 08:38:04;;;;;;;9.70;8.80;;;;;;;9.52;100.00;99106.48;101534;1306;60490;-73
2021/12/31 08:40:31;;;;;;;10.20;9.00;;;;;;;9.63;100.00;99107.00;101442;1307;60415;-72
2021/12/31 08:42:57;;;;;;;9.70;7.50;;;;;;;9.77;100.00;99107.08;101542;1307;69543;-73
2021/12/31 08:45:25;;;;;;;9.70;7.60;;;;;;;9.91;100.00;99109.77;101518;1307;72868;-73
2021/12/31 08:47:51;;;;;;;7.90;7.20;;;;;;;10.06;100.00;99110.94;101647;1307;60511;-73
2021/12/31 08:50:18;;;;;;;8.00;7.10;;;;;;;10.22;100.00;99110.66;101649;1307;60850;-74
2021/12/31 08:52:45;;;;;;;6.90;6.10;;;;;;;10.30;100.00;99111.57;101483;1306;75368;-72
2021/12/31 08:55:12;;;;;;;7.80;6.90;;;;;;;10.35;100.00;99104.32;101867;1307;70090;-73
2021/12/31 08:57:39;;;;;;;7.60;6.40;;;;;;;10.41;100.00;99103.04;101614;1307;73297;-74
2021/12/31 09:00:06;;;;;;;8.40;7.20;;;;;;;10.48;100.00;99098.85;101941;1307;60454;-73
2021/12/31 09:02:35;;;;;;;8.90;7.50;;;;;;;10.58;100.00;99101.40;101919;1306;60355;-74
2021/12/31 09:05:03;;;;;;;8.70;7.80;;;;;;;10.74;100.00;99104.83;101799;1307;75724;-73
2021/12/31 09:07:30;;;;;;;9.80;8.10;;;;;;;10.87;100.00;99106.59;101835;1307;69139;-73
2021/12/31 09:09:56;;;;;;;9.20;7.40;;;;;;;10.96;100.00;99108.67;101907;1306;74622;-73
2021/12/31 09:12:24;;;;;;;9.60;7.60;;;;;;;11.01;100.00;99104.98;101949;1306;60469;-74
2021/12/31 09:14:51;;;;;;;8.30;7.00;;;;;;;10.98;100.00;99101.94;101445;1312;62065;-73
2021/12/31 09:17:18;;;;;;;10.90;8.70;;;;;;;10.91;100.00;99104.71;102244;1307;74240;-74
2021/12/31 09:19:44;;;;;;;9.20;7.00;;;;;;;10.83;100.00;99102.45;103090;1306;68804;-73
2021/12/31 09:22:11;;;;;;;10.30;6.80;;;;;;;10.73;100.00;99112.11;102377;1307;60442;-73
2021/12/31 09:24:37;;;;;;;9.90;7.70;;;;;;;10.68;100.00;99113.91;104415;1306;60513;-72
2021/12/31 09:27:04;;;;;;;8.30;6.10;;;;;;;10.63;100.00;99115.15;104106;1307;60801;-74
2021/12/31 09:29:31;;;;;;;7.00;6.30;;;;;;;10.58;100.00;99115.85;103726;1309;74603;-74
2021/12/31 09:31:57;;;;;;;7.60;6.30;;;;;;;10.55;100.00;99116.88;104294;1312;69123;-74
2021/12/31 09:34:24;;;;;;;8.80;6.20;;;;;;;10.57;100.00;99116.20;102808;1307;73467;-74
2021/12/31 09:36:50;;;;;;;10.40;5.40;;;;;;;10.60;100.00;99117.10;101560;1306;60460;-73
2021/12/31 09:39:17;;;;;;;11.10;6.40;;;;;;;10.65;100.00;99120.89;101460;1306;61088;-73
2021/12/31 09:41:44;;;;;;;7.20;6.20;;;;;;;10.70;100.00;99121.96;101463;1307;75205;-73
2021/12/31 09:44:14;;;;;;;8.70;5.80;;;;;;;10.74;100.00;99115.69;101513;1310;70354;-74
2021/12/31 09:46:41;;;;;;;7.60;5.50;;;;;;;10.76;100.00;99114.97;101064;1307;73209;-74
2021/12/31 09:49:08;;;;;;;6.20;4.80;;;;;;;10.78;100.00;99114.86;101484;1307;60550;-73
2021/12/31 09:51:35;;;;;;;6.10;5.00;;;;;;;10.79;100.00;99113.96;101533;1307;60413;-73
2021/12/31 09:54:02;;;;;;;7.00;5.60;;;;;;;10.81;100.00;99114.31;101465;1306;75542;-74
2021/12/31 09:56:30;;;;;;;6.70;5.40;;;;;;;10.85;100.00;99107.80;101449;1306;69046;-73
2021/12/31 09:58:56;;;;;;;7.10;5.40;;;;;;;10.91;100.00;99108.66;101541;1307;73409;-75
2021/12/31 10:01:23;;;;;;;5.70;4.60;;;;;;;10.98;100.00;99110.34;101513;1307;60544;-74
2021/12/31 10:03:57;;;;;;;5.60;4.70;;;;;;;11.07;100.00;99109.59;101467;1307;60571;-74
2021/12/31 10:06:24;;;;;;;5.80;4.70;;;;;;;11.11;100.00;99110.33;101381;1307;75239;-74
2021/12/31 10:08:51;;;;;;;5.90;4.30;;;;;;;11.12;100.00;99113.14;101440;1306;69387;-74
2021/12/31 10:11:26;;;;;;;7.80;5.90;;;;;;;11.11;100.00;99106.98;101686;1306;73472;-74
2021/12/31 10:14:03;;;;;;;6.20;4.20;;;;;;;11.12;100.00;99098.18;101139;1310;61192;-73
2021/12/31 10:16:31;;;;;;;6.20;3.90;;;;;;;11.16;100.00;99104.67;101752;1307;60357;-74
2021/12/31 10:19:05;;;;;;;4.40;3.40;;;;;;;11.24;100.00;99103.95;101143;1309;73972;-74
2021/12/31 10:21:47;;;;;;;4.20;3.30;;;;;;;11.39;100.00;99104.70;101534;1307;69719;-73
2021/12/31 10:24:25;;;;;;;4.80;3.40;;;;;;;11.64;100.00;99097.99;101241;1310;73587;-74
2021/12/31 10:26:58;;;;;;;4.00;3.40;;;;;;;11.87;100.00;99090.37;101443;1310;61014;-74
2021/12/31 10:29:25;;;;;;;5.70;3.90;;;;;;;12.06;100.00;99091.01;101602;1307;61834;-74
2021/12/31 10:31:53;;;;;;;5.20;3.70;;;;;;;12.16;100.00;99086.00;101522;1306;73350;-73
2021/12/31 10:34:36;;;;;;;6.40;3.80;;;;;;;12.17;100.00;99085.38;101620;1307;70392;-74
2021/12/31 10:37:14;;;;;;;5.40;3.70;;;;;;;12.13;100.00;99083.36;101745;1307;73513;-73
2021/12/31 10:39:42;;;;;;;5.50;4.60;;;;;;;12.18;100.00;99080.70;101561;1314;61490;-74
2021/12/31 10:42:10;;;;;;;4.70;4.20;;;;;;;12.30;100.00;99081.75;101568;1307;60786;-73
2021/12/31 10:44:53;;;;;;;4.60;4.20;;;;;;;12.38;100.00;99075.29;101578;1306;74973;-73
2021/12/31 10:47:23;;;;;;;5.20;3.80;;;;;;;12.34;100.00;99078.66;101600;1307;69170;-74
2021/12/31 10:49:55;;;;;;;6.80;4.10;;;;;;;12.26;100.00;99074.36;101676;1306;74495;-74
2021/12/31 10:53:02;;;;;;;5.90;4.90;;;;;;;12.19;100.00;99075.42;101469;1307;60584;-73
2021/12/31 10:55:30;;;;;;;5.80;4.30;;;;;;;12.13;100.00;99071.42;101564;1310;60821;-73
2021/12/31 10:58:03;;;;;;;6.00;4.40;;;;;;;12.09;100.00;99066.21;101603;1307;74512;-73
2021/12/31 11:00:50;;;;;;;7.30;4.90;;;;;;;12.06;100.00;99060.20;101471;1307;70701;-74
2021/12/31 11:03:17;;;;;;;6.20;4.80;;;;;;;12.01;100.00;99061.59;101689;1307;73284;-75
2021/12/31 11:05:44;;;;;;;7.20;4.90;;;;;;;11.99;100.00;99065.87;101759;1310;60545;-74
2021/12/31 11:08:13;;;;;;;6.60;4.40;;;;;;;11.98;100.00;99066.80;101699;1307;60455;-73
2021/12/31 11:10:41;;;;;;;8.10;6.40;;;;;;;11.98;100.00;99066.45;101569;1307;74512;-72
2021/12/31 11:13:17;;;;;;;5.90;5.30;;;;;;;11.99;100.00;99070.67;101505;1306;69124;-73
2021/12/31 11:15:47;;;;;;;7.30;5.00;;;;;;;12.05;100.00;99073.45;101559;1305;73474;-73
2021/12/31 11:18:18;;;;;;;6.70;4.40;;;;;;;12.10;100.00;99072.88;101513;1307;60464;-74
2021/12/31 11:20:46;;;;;;;5.20;3.90;;;;;;;12.11;100.00;99068.77;101577;1314;60460;-73
2021/12/31 11:23:13;;;;;;;5.20;4.20;;;;;;;12.07;100.00;99062.98;101504;1306;74340;-73
2021/12/31 11:25:51;;;;;;;5.60;4.40;;;;;;;12.01;100.00;99055.34;101429;1307;68726;-73
2021/12/31 11:28:32;;;;;;;5.50;3.70;;;;;;;11.98;100.00;99056.47;101164;1307;73667;-74
2021/12/31 11:31:17;;;;;;;5.00;4.10;;;;;;;11.97;100.00;99052.42;101699;1307;61352;-74